Port Alexander, AK (99836)

5:54 AM AKST on December 11, 2016 (GMT -0900)
Kake | | Change Station

Elev 171 ft 56.96 °N, 133.91 °W | Updated 18 minutes ago

Clear
Clear
23 °F
Feels Like 18 °F
N
4
Wind Variable Wind from NE

Today
High -- | Low -- °F
--% Chance of Precip.
Yesterday
High -- | Low -- °F
Precip. -- in
Pressure 30.11 in
Visibility 10.0 miles
Clouds Clear
Windchill 18 °F
Dew Point 3 °F
Humidity 43%
Rainfall 0.00 in
Snow Depth Not available.
8:22 AM 3:22 PM
Waxing Gibbous, 92% visible
METAR PAFE 111436Z AUTO 04003KT 10SM CLR M05/M16 A3011 RMK AO1
Pressure 30.11 in
Visibility 10.0 miles
Clouds Clear
Windchill 18 °F
Dew Point 3 °F
Humidity 43%
Rainfall 0.00 in
Snow Depth Not available.
8:22 AM 3:22 PM
Waxing Gibbous, 92% visible
METAR PAFE 111436Z AUTO 04003KT 10SM CLR M05/M16 A3011 RMK AO1

10-Day Weather Forecast

Almanac

Astronomy

Dec. 11, 2016 Rise Set
Actual Time
Civil Twilight
Nautical Twilight
Astronomical Twilight
Moon
Length of Visible Light
Length of Day
Tomorrow will be .
, % of the Moon is Illuminated

Today's Extremes

State Highs State Lows

Community

WunderPhotos

Upload Photos

1,956,719 photos uploaded!

WunderBlog® & News

Nearby

Air Quality

  Air Quality AQ Index Pollutant
Not available.

Snow Depth

Station Depth Elevation

Earthquake Activity

City Distance Mag. Time & Date
Minimum magnitude displayed is 2.5.

Coastal Water Temperatures

Place Temperature

Stations

Nearby Weather Stations

Station Location Temp. Windchill Dew Point Humidity Wind Precip. Elev Updated Type
                   

Watches & Warnings

There are currently no watches in effect.